• Join FlightAware (Why Join?)
  • Login
  • US Flag 
04:19AM EDT


 

Airport Tracker/Info


-or-


 

Live Flight TrackerFlight Track Log ✈ SWA1729 ✈ 22-Apr-2013 ✈ KHOU - KELP

Flight Track Log - Related Links

Times and Time Zones

All times are in EDT time to prevent confusion due to time zone crossing. See the SWA1729 flight status page for this flight to view local times or setup timezone preferences in your user account.

Time Position Orientation Groundspeed Altitude Reporting Facility
EDT Latitude Longitude Course Direction KTS MPH feet Rate Location/Type
10:15PM 29.6731 -95.2553 12° North 239 275 3,300  Level Houston Center
10:16PM 29.7167 -95.3231 307° West 260 299 5,800 2,940 Climbing Houston Center
10:17PM 29.7581 -95.3961 303° West 270 311 9,300 2,700 Climbing Houston Center
10:18PM 29.7803 -95.4842 286° West 284 327 11,400 2,340 Climbing Houston Center
10:19PM 29.8061 -95.5828 287° West 312 359 14,200 2,280 Climbing Houston Center
10:20PM 29.8336 -95.6861 287° West 334 384 16,100 2,160 Climbing Houston Center
10:21PM 29.8628 -95.7997 287° West 363 418 18,700 2,460 Climbing Houston Center
10:22PM 29.8936 -95.9156 287° West 375 432 21,200 2,340 Climbing Houston Center
10:23PM 29.9236 -96.0339 286° West 382 440 23,500 2,340 Climbing Houston Center
10:24PM 29.9336 -96.1792 275° West 382 440 26,000 2,100 Climbing Houston Center
10:25PM 29.9417 -96.3031 274° West 388 447 27,900 1,980 Climbing Houston Center
10:26PM 29.9486 -96.4258 274° West 387 445 30,100 2,100 Climbing Houston Center
10:27PM 29.9553 -96.5450 274° West 380 437 32,200 1,740 Climbing Houston Center
10:28PM 29.9753 -96.6569 282° West 363 418 33,700 1,320 Climbing Houston Center
10:29PM 29.9994 -96.7664 284° West 356 410 35,000 1,080 Climbing Houston Center
10:30PM 30.0206 -96.8750 283° West 351 404 35,900 480 Climbing Houston Center
10:31PM 30.0431 -96.9853 283° West 353 406 36,000  Climbing Houston Center
10:32PM 30.0669 -97.0944 284° West 353 406 36,000  Level Houston Center
10:33PM 30.0933 -97.2244 283° West 349 402 36,000  Level Houston Center
10:34PM 30.1147 -97.3303 283° West 349 402 36,000  Level Houston Center
10:35PM 30.1372 -97.4408 283° West 347 399 36,000  Level Houston Center
10:36PM 30.1597 -97.5497 283° West 347 399 36,000  Level Houston Center
10:37PM 30.1819 -97.6597 283° West 346 398 36,000  Level Houston Center
10:38PM 30.2039 -97.7697 283° West 345 397 36,000  Level Houston Center
10:39PM 30.2275 -97.8875 283° West 344 396 36,000  Level Houston Center
10:40PM 30.2489 -97.9964 283° West 346 398 36,000  Level Houston Center
10:41PM 30.2703 -98.1053 283° West 349 402 36,000  Level Houston Center
10:42PM 30.2922 -98.2158 283° West 353 406 36,000  Level Houston Center
10:44PM 30.3128 -98.3219 283° West 350 403 36,000  Level Houston Center
10:45PM 30.3358 -98.4344 283° West 354 407 36,000  Level Houston Center
10:46PM 30.3556 -98.5467 282° West 352 405 36,000  Level Houston Center
10:47PM 30.3789 -98.6581 284° West 352 405 36,000  Level Houston Center
10:48PM 30.3997 -98.7703 282° West 353 406 36,000  Level Houston Center
10:49PM 30.4219 -98.8833 283° West 355 409 36,000  Level Houston Center
10:50PM 30.4447 -98.9956 283° West 355 409 36,000  Level Houston Center
10:51PM 30.4664 -99.1078 283° West 353 406 36,000  Level Houston Center
10:52PM 30.4872 -99.2169 283° West 354 407 36,000  Level Houston Center
10:53PM 30.5089 -99.3275 283° West 352 405 36,000  Level Houston Center
10:54PM 30.5286 -99.4386 282° West 354 407 36,000  Level Houston Center
10:55PM 30.5536 -99.5706 282° West 353 406 36,000  Level Houston Center
10:56PM 30.5742 -99.6819 282° West 354 407 36,000 -60 Level Houston Center
10:57PM 30.5928 -99.7919 281° West 350 403 35,900  Descending Houston Center
10:58PM 30.6150 -99.9033 283° West 359 413 36,000  Climbing Houston Center
10:59PM 30.6383 -100.0142 284° West 362 417 36,000  Level Houston Center
11:00PM 30.6608 -100.1256 283° West 359 413 36,000  Level Houston Center
11:01PM 30.6833 -100.2358 283° West 355 409 36,000  Level Houston Center
11:02PM 30.7058 -100.3472 283° West 356 410 36,000  Level Houston Center
11:03PM 30.7281 -100.4572 283° West 353 406 36,000  Level Houston Center
11:04PM 30.7489 -100.5700 282° West 357 411 36,000  Level Houston Center
11:05PM 30.7747 -100.7047 283° West 358 412 36,000 -60 Level Houston Center
11:06PM 30.7975 -100.8158 283° West 356 410 35,900  Descending Houston Center
11:07PM 30.8208 -100.9256 284° West 351 404 36,000  Climbing Houston Center
11:08PM 30.8403 -101.0414 281° West 361 415 36,000  Level Houston Center
11:09PM 30.8633 -101.1494 284° West 349 402 36,000  Level Houston Center
11:10PM 30.8861 -101.2603 283° West 351 404 36,000  Level Houston Center
11:11PM 30.9067 -101.3703 282° West 350 403 36,000  Level Houston Center
11:12PM 30.9206 -101.4458 282° West 349 402 36,000  Level Albuquerque Center
11:13PM 30.9411 -101.5575 282° West 352 405 36,000  Level Albuquerque Center
11:14PM 30.9622 -101.6681 283° West 351 404 36,000  Level Albuquerque Center
11:15PM 30.9858 -101.8008 282° West 349 402 36,000 -60 Level Albuquerque Center
11:16PM 31.0072 -101.9111 283° West 349 402 35,900  Descending Albuquerque Center
11:17PM 31.0272 -102.0214 282° West 357 411 36,000  Climbing Albuquerque Center
11:18PM 31.0467 -102.1339 281° West 355 409 36,000  Level Albuquerque Center
11:19PM 31.0672 -102.2433 282° West 349 402 36,000  Level Albuquerque Center
11:20PM 31.0878 -102.3542 282° West 349 402 36,000  Level Albuquerque Center
11:21PM 31.1083 -102.4656 282° West 351 404 36,000  Level Albuquerque Center
11:22PM 31.1289 -102.5847 281° West 346 398 36,000  Level Albuquerque Center
11:23PM 31.1494 -102.6956 282° West 347 399 36,000  Level Albuquerque Center
11:24PM 31.1694 -102.8078 282° West 351 404 36,000  Level Albuquerque Center
11:25PM 31.1900 -102.9211 282° West 354 407 36,000  Level Albuquerque Center
11:26PM 31.2100 -103.0350 282° West 358 412 36,000  Level Albuquerque Center
11:27PM 31.2297 -103.1456 282° West 352 405 36,000 -60 Level Albuquerque Center
11:28PM 31.2533 -103.2806 282° West 353 406 35,900  Descending Albuquerque Center
11:29PM 31.2722 -103.3906 281° West 348 400 36,000  Climbing Albuquerque Center
11:30PM 31.2911 -103.5008 281° West 347 399 36,000  Level Albuquerque Center
11:31PM 31.3100 -103.6119 281° West 347 399 36,000  Level Albuquerque Center
11:32PM 31.3289 -103.7225 281° West 349 402 36,000  Level Albuquerque Center
11:33PM 31.3475 -103.8294 282° West 351 404 36,000  Level Albuquerque Center
11:34PM 31.3664 -103.9400 281° West 350 403 36,000 -60 Level Albuquerque Center
11:35PM 31.3858 -104.0528 281° West 354 407 35,900 -60 Descending Albuquerque Center
11:36PM 31.4094 -104.1878 282° West 355 409 35,900  Level Albuquerque Center
11:37PM 31.4283 -104.3000 281° West 354 407 36,000  Climbing Albuquerque Center
11:38PM 31.4461 -104.4142 280° West 358 412 35,900 -180 Descending Albuquerque Center
11:39PM 31.4617 -104.5289 279° West 359 413 35,700 -600 Descending Albuquerque Center
11:40PM 31.4728 -104.6453 276° West 362 417 34,700 -1,020 Descending Albuquerque Center
11:41PM 31.4856 -104.7622 277° West 364 419 33,700 -1,020 Descending Albuquerque Center
11:42PM 31.4967 -104.8789 276° West 364 419 32,700 -1,920 Descending Albuquerque Center
11:43PM 31.5092 -104.9983 277° West 370 426 29,800 -3,060 Descending Albuquerque Center
11:44PM 31.5247 -105.1492 277° West 387 445 26,500 -2,880 Descending Albuquerque Center
11:45PM 31.5378 -105.2683 277° West 377 434 24,000 -2,460 Descending Albuquerque Center
11:46PM 31.5478 -105.3861 276° West 368 423 21,500 -2,400 Descending Albuquerque Center
11:47PM 31.5592 -105.4964 277° West 348 400 19,100 -2,580 Descending Albuquerque Center
11:48PM 31.5642 -105.5764 274° West 341 392 17,300 -2,460 Descending Albuquerque Center
11:48PM 31.5694 -105.6056 282° West 340 391 16,600 -2,340 Descending Albuquerque Center
11:49PM 31.5756 -105.6831 275° West 330 380 15,000 -2,280 Descending Albuquerque Center
11:49PM 31.5786 -105.7103 278° West 327 376 14,300 -2,220 Descending Albuquerque Center
11:50PM 31.5850 -105.7681 277° West 317 365 13,000 -2,040 Descending Albuquerque Center
11:50PM 31.5914 -105.8111 280° West 315 362 12,200 -2,100 Descending Albuquerque Center
11:51PM 31.6208 -105.8689 301° West 321 369 10,900 -1,980 Descending Albuquerque Center
11:51PM 31.6378 -105.8997 303° West 321 369 10,200 -1,200 Descending Albuquerque Center
11:52PM 31.6667 -105.9547 302° West 306 352 9,700 -1,020 Descending Albuquerque Center
11:52PM 31.6797 -105.9819 299° West 291 335 9,200 -1,440 Descending Albuquerque Center
11:53PM 31.7047 -106.0325 300° West 268 308 8,300 -1,320 Descending Albuquerque Center
11:54PM 31.7247 -106.0717 301° West 267 307 7,900 -600 Descending Albuquerque Center
11:54PM 31.7464 -106.0969 315° West 248 285 7,700 -840 Descending Albuquerque Center
11:55PM 31.7633 -106.1300 301° West 231 266 7,100 -900 Descending Albuquerque Center
11:55PM 31.7694 -106.1636 282° West 215 247 6,800 -900 Descending Albuquerque Center
11:56PM 31.7778 -106.2000 285° West 222 255 6,200 -900 Descending Albuquerque Center
11:56PM 31.7831 -106.2275 283° West 217 250 6,000 -720 Descending Albuquerque Center
11:57PM 31.7917 -106.2639 286° West 205 236 5,500 -840 Descending Albuquerque Center
11:57PM 31.7953 -106.2822 283° West 165 190 5,200 -720 Descending Albuquerque Center
11:58PM 31.7978 -106.3094 276° West 148 170 4,800 -720 Descending Albuquerque Center
11:58PM 31.7989 -106.3261 274° West 126 145 4,500 -840 Descending Albuquerque Center
11:59PM 31.8011 -106.3578 275° West 138 159 4,000 -720 Descending Albuquerque Center
12:01AM 31.8000 -106.3667 270° West  Level FlightAware Approximate
12:08AM 31.8072 -106.3764 270° West  Level Estimated
12:09AM 31.8072 -106.3764 270° West  Level Estimated
12:10AM 31.8072 -106.3764 270° West  Level Estimated
12:11AM 31.8072 -106.3764 270° West  Level Estimated